VHHHRPLI

Guest
Details From VHHH - Hong Kong Intl
To RPLI - Laoag Intl
Flight Number -
Tags Generated
Created
Modified
Stats Distance 449 nm / 831 km
Max Altitude 0 ft / 0 m
Waypoints 3
Social Downloads 0
Likes 0
Share VATSIM

Download

Looking for another format? Having issues loading an existing format? Contact us
Advertisement - Login to hide

Notes

Generated

Route

VHHH LAO RPLI

ID Type Via Altitude Latitude Longitude Leg Dist Tot Dist Heading (true) Name
O VHHH APT - 0 ft / 0 m 22.29628˚ 113.89799˚ - 0 nm - -
LAO VOR - 0 ft / 0 m 18.17881˚ 120.52908˚ 447 nm 447 nm 122° / 125° LAOAG VOR-DME
O RPLI APT - 0 ft / 0 m 18.16364˚ 120.52987˚ 0 nm 448 nm 177° / 177° -

Altitude Profile

Advertisement - Login to hide

Weather


0- 5 10 15 20 25 30 35+ Temperature / ° C

Clouds and Precipitation
Forecast for 2017-12-19 00:00 UTC. Updated an hour ago

Ground ~20,000 ft ~40,000 ft Winds

VHHH

Details ICAO VHHH (HKG)
Name Hong Kong Intl
Region Hong Kong
Timezone Unknown (UTC+0.0)
Stats Elevation 28 ft / 9 m (AMSL)
Location 22.308995° 113.914610°
Runways 2
Magnetic Variation 2.823° W

METAR

VHHH 182200Z 01010KT CAVOK 10/M04 Q1026 NOSIG

Decode

TAF

TAF VHHH 181700Z 1818/1924 01015KT 9000 NSC TX16/1906Z TN09/1823Z TN09/1923Z

Decode

Departure Runways

ID Width Length Bearing (true) Bearing (mag) Surface Threshold Offset Overrun Length
07L 197 ft / 60 m 12,457 ft / 3,797 m 70.79° 73.61° Asphalt 564 ft / 172 m 866 ft / 264 m
07R 197 ft / 60 m 12,458 ft / 3,797 m 70.79° 73.61° Asphalt 525 ft / 160 m 886 ft / 270 m
25L 197 ft / 60 m 12,458 ft / 3,797 m 250.80° 253.62° Asphalt 0 ft / 0 m 840 ft / 256 m
25R 197 ft / 60 m 12,457 ft / 3,797 m 250.80° 253.62° Asphalt 581 ft / 177 m 860 ft / 262 m

RPLI

Details ICAO RPLI (LAO)
Name LAOAG INTL
Region Philippines
Timezone Asia/Manila (UTC+8.0)
Stats Elevation 25 ft / 8 m (AMSL)
Location 18.176144° 120.531104°
Runways 1
Magnetic Variation 2.866° W

METAR

RPLI 182200Z 03008G24KT 8000 FEW019 OVC100 24/21 Q1011 NOSIG RMK A2985

Decode

TAF

TAF RPLI 181700Z 1818/1918 03012G24KT 9999 FEW019 BKN280 TEMPO 1818/1824 05010G20KT FEW019 BKN100

Decode

Destination Runways

ID Width Length Bearing (true) Bearing (mag) Surface Threshold Offset Overrun Length
01 148 ft / 45 m 9,165 ft / 2,793 m 5.37° 8.24° Concrete 1,181 ft / 360 m 1,200 ft / 366 m
19 148 ft / 45 m 9,165 ft / 2,793 m 185.37° 188.24° Concrete 0 ft / 0 m 0 ft / 0 m

Popular Alternatives